Time;durP1;ratioP1;P1;durP2;ratioP2;P2;SDS_P1;SDS_P2;PMS_P1;PMS_P2;Temp;Humidity;BMP_temperature;BMP_pressure;BME280_temperature;BME280_humidity;BME280_pressure;Samples;Min_cycle;Max_cycle;Signal;HPM_P1;HPM_P2
2023/10/30 00:01:57;;;;;;;3.93;1.17;;;11.70;99.90;;;;;;5032782;28;20476;-61
2023/10/30 00:04:24;;;;;;;1.37;1.27;;;11.70;99.90;;;;;;5033260;28;20520;-61
2023/10/30 00:06:52;;;;;;;3.63;1.00;;;11.60;99.90;;;;;;5033201;28;20460;-62
2023/10/30 00:09:18;;;;;;;1.43;1.00;;;11.60;99.90;;;;;;5033353;28;20943;-62
2023/10/30 00:11:46;;;;;;;3.87;1.70;;;11.60;99.90;;;;;;5033158;28;20831;-61
2023/10/30 00:14:14;;;;;;;3.77;1.17;;;11.60;99.90;;;;;;5032843;28;20871;-61
2023/10/30 00:16:41;;;;;;;8.00;1.10;;;11.60;99.90;;;;;;5032830;28;21007;-61
2023/10/30 00:19:07;;;;;;;2.67;1.07;;;11.60;99.90;;;;;;5033458;28;20447;-63
2023/10/30 00:21:35;;;;;;;1.87;1.10;;;11.60;99.90;;;;;;5033083;28;20561;-61
2023/10/30 00:24:04;;;;;;;3.40;1.10;;;11.60;99.90;;;;;;5032806;28;20447;-61
2023/10/30 00:26:30;;;;;;;7.90;1.70;;;11.60;99.90;;;;;;5033165;28;20931;-61
2023/10/30 00:28:58;;;;;;;2.57;1.10;;;11.50;99.90;;;;;;5036679;28;20501;-61
2023/10/30 00:31:25;;;;;;;2.67;1.20;;;11.50;99.90;;;;;;5037216;28;20822;-62
2023/10/30 00:33:53;;;;;;;3.97;1.13;;;11.50;99.90;;;;;;5037173;28;20961;-61
2023/10/30 00:36:19;;;;;;;3.07;1.37;;;11.50;99.90;;;;;;5037190;28;20448;-61
2023/10/30 00:38:46;;;;;;;1.70;1.00;;;11.50;99.90;;;;;;5036884;28;20480;-61
2023/10/30 00:41:14;;;;;;;2.37;1.00;;;11.50;99.90;;;;;;5036557;28;20935;-62
2023/10/30 00:43:41;;;;;;;2.03;1.10;;;11.50;99.90;;;;;;5036880;28;20441;-62
2023/10/30 00:46:08;;;;;;;3.73;0.87;;;11.40;99.90;;;;;;5037038;28;20441;-61
2023/10/30 00:48:35;;;;;;;3.73;1.20;;;11.40;99.90;;;;;;5037158;28;20447;-61
2023/10/30 00:51:02;;;;;;;2.33;1.03;;;11.40;99.90;;;;;;5036852;28;20445;-61
2023/10/30 00:53:28;;;;;;;2.00;1.20;;;11.40;99.90;;;;;;5036883;28;20475;-62
2023/10/30 00:55:55;;;;;;;6.50;1.77;;;11.30;99.90;;;;;;5036821;28;20451;-62
2023/10/30 00:58:23;;;;;;;2.50;1.30;;;11.30;99.90;;;;;;5036541;28;20480;-61
2023/10/30 01:00:50;;;;;;;1.63;1.07;;;11.30;99.90;;;;;;5036498;28;20817;-61
2023/10/30 01:03:19;;;;;;;6.13;1.90;;;11.30;99.90;;;;;;5036314;28;20472;-61
2023/10/30 01:05:47;;;;;;;3.10;1.10;;;11.30;99.90;;;;;;5036372;28;21012;-62
2023/10/30 01:08:14;;;;;;;2.73;1.23;;;11.20;99.90;;;;;;5036662;28;20441;-61
2023/10/30 01:10:41;;;;;;;2.17;1.50;;;11.30;99.90;;;;;;5036674;28;20441;-62
2023/10/30 01:13:07;;;;;;;6.00;1.50;;;11.30;99.90;;;;;;5036384;28;20488;-62
2023/10/30 01:15:35;;;;;;;5.20;1.40;;;11.30;99.90;;;;;;5036322;28;20441;-62
2023/10/30 01:18:02;;;;;;;3.73;1.20;;;11.30;99.90;;;;;;5036405;28;20499;-61
2023/10/30 01:20:29;;;;;;;2.53;1.30;;;11.30;99.90;;;;;;5036503;28;20448;-61
2023/10/30 01:22:56;;;;;;;4.10;1.20;;;11.30;99.90;;;;;;5036297;28;20461;-61
2023/10/30 01:25:22;;;;;;;4.27;1.20;;;11.40;99.90;;;;;;5036423;28;20495;-62
2023/10/30 01:27:49;;;;;;;5.83;1.53;;;11.40;99.90;;;;;;5036671;28;20481;-60
2023/10/30 01:30:16;;;;;;;4.20;1.50;;;11.40;99.90;;;;;;5036167;28;20966;-62
2023/10/30 01:32:44;;;;;;;5.13;1.40;;;11.30;99.90;;;;;;5036646;28;20472;-62
2023/10/30 01:35:11;;;;;;;6.83;1.30;;;11.30;99.90;;;;;;5035894;28;20441;-62
2023/10/30 01:37:37;;;;;;;3.90;1.50;;;11.40;99.90;;;;;;5036071;28;20503;-62
2023/10/30 01:40:05;;;;;;;3.33;1.33;;;11.40;99.90;;;;;;5035349;28;20441;-62
2023/10/30 01:42:32;;;;;;;4.73;1.30;;;11.40;99.90;;;;;;5035907;28;20471;-61
2023/10/30 01:45:00;;;;;;;8.53;1.30;;;11.50;99.90;;;;;;5035969;28;20495;-62
2023/10/30 01:47:26;;;;;;;2.67;1.10;;;11.50;99.90;;;;;;5035858;28;20441;-62
2023/10/30 01:49:56;;;;;;;4.23;1.23;;;11.50;99.90;;;;;;5035938;28;20961;-62
2023/10/30 01:52:24;;;;;;;5.93;1.20;;;11.50;99.90;;;;;;5036285;28;20476;-62
2023/10/30 01:54:52;;;;;;;2.80;1.23;;;11.40;99.90;;;;;;5036725;28;20444;-61
2023/10/30 01:57:21;;;;;;;4.57;1.10;;;11.50;99.90;;;;;;5036084;28;20564;-62
2023/10/30 01:59:49;;;;;;;3.90;1.30;;;11.40;99.90;;;;;;5035943;28;20441;-62
2023/10/30 02:02:16;;;;;;;2.80;1.20;;;11.40;99.90;;;;;;5036244;28;20473;-62
2023/10/30 02:04:43;;;;;;;4.73;1.57;;;11.40;99.90;;;;;;5036227;28;20432;-62
2023/10/30 02:07:12;;;;;;;4.07;1.10;;;11.40;99.90;;;;;;5036395;28;20441;-62
2023/10/30 02:09:38;;;;;;;1.90;1.30;;;11.40;99.90;;;;;;5036711;28;20540;-62
2023/10/30 02:12:05;;;;;;;3.07;1.50;;;11.50;99.90;;;;;;5036097;28;20507;-60
2023/10/30 02:14:32;;;;;;;5.57;1.60;;;11.40;99.90;;;;;;5037363;28;20438;-61
2023/10/30 02:16:58;;;;;;;5.70;1.40;;;11.40;99.90;;;;;;5037422;28;20444;-61
2023/10/30 02:19:27;;;;;;;2.77;1.50;;;11.40;99.90;;;;;;5036560;28;20452;-62
2023/10/30 02:21:54;;;;;;;5.97;1.17;;;11.40;99.90;;;;;;5037062;28;20465;-61
2023/10/30 02:24:24;;;;;;;6.50;2.00;;;11.40;99.90;;;;;;5037196;28;20444;-62
2023/10/30 02:26:52;;;;;;;3.27;1.30;;;11.40;99.90;;;;;;5037001;28;20495;-61
2023/10/30 02:29:19;;;;;;;5.70;1.33;;;11.40;99.90;;;;;;5038370;28;20441;-62
2023/10/30 02:31:46;;;;;;;4.43;1.20;;;11.30;99.90;;;;;;5037593;28;20477;-61
2023/10/30 02:34:14;;;;;;;3.23;1.37;;;11.40;99.90;;;;;;5037365;28;20862;-61
2023/10/30 02:36:41;;;;;;;7.40;3.43;;;11.30;99.90;;;;;;5034906;28;20445;-61
2023/10/30 02:39:08;;;;;;;4.83;1.30;;;11.30;99.90;;;;;;5035040;28;20477;-62
2023/10/30 02:41:35;;;;;;;3.80;1.20;;;11.30;99.90;;;;;;5034475;28;20994;-61
2023/10/30 02:44:03;;;;;;;2.60;1.17;;;11.30;99.90;;;;;;5034857;28;20505;-61
2023/10/30 02:46:30;;;;;;;4.50;1.30;;;11.30;99.90;;;;;;5034421;28;20441;-62
2023/10/30 02:48:57;;;;;;;1.47;0.80;;;11.20;99.90;;;;;;5034755;28;20460;-62
2023/10/30 02:51:24;;;;;;;4.70;1.20;;;11.30;99.90;;;;;;5033681;28;20568;-61
2023/10/30 02:53:50;;;;;;;7.60;1.10;;;11.20;99.90;;;;;;5034613;28;20437;-62
2023/10/30 02:56:17;;;;;;;2.93;1.10;;;11.20;99.90;;;;;;5034190;28;20448;-62
2023/10/30 02:58:44;;;;;;;2.60;1.53;;;11.30;99.90;;;;;;5034739;28;20500;-62
2023/10/30 03:01:12;;;;;;;6.93;1.77;;;11.30;99.90;;;;;;5033909;28;20961;-62
2023/10/30 03:03:39;;;;;;;4.50;1.53;;;11.30;99.90;;;;;;5035087;28;20432;-61
2023/10/30 03:06:06;;;;;;;2.80;1.20;;;11.30;99.90;;;;;;5034459;28;20485;-62
2023/10/30 03:08:33;;;;;;;2.40;1.10;;;11.30;99.90;;;;;;5035065;28;21010;-62
2023/10/30 03:11:00;;;;;;;6.33;1.20;;;11.30;99.90;;;;;;5034199;28;20447;-62
2023/10/30 03:13:27;;;;;;;1.93;1.00;;;11.30;99.90;;;;;;5034568;28;20484;-61
2023/10/30 03:15:53;;;;;;;3.93;1.30;;;11.30;99.90;;;;;;5034139;28;20445;-62
2023/10/30 03:18:21;;;;;;;6.03;1.33;;;11.20;99.90;;;;;;5034051;28;20491;-61
2023/10/30 03:20:48;;;;;;;6.47;1.37;;;11.20;99.90;;;;;;5034026;28;20467;-61
2023/10/30 03:23:15;;;;;;;6.20;1.60;;;11.20;99.90;;;;;;5033571;28;21001;-61
2023/10/30 03:25:42;;;;;;;5.07;2.43;;;11.20;99.90;;;;;;5034001;28;20442;-62
2023/10/30 03:28:09;;;;;;;11.37;1.30;;;11.20;99.90;;;;;;5034063;28;20440;-61
2023/10/30 03:30:36;;;;;;;4.77;1.17;;;11.20;99.90;;;;;;5033514;28;20448;-61
2023/10/30 03:33:03;;;;;;;3.83;1.20;;;11.20;99.90;;;;;;5033766;28;20464;-62
2023/10/30 03:35:31;;;;;;;5.20;1.73;;;11.20;99.90;;;;;;5033774;28;20445;-62
2023/10/30 03:37:58;;;;;;;2.07;0.90;;;11.10;99.90;;;;;;5033661;28;20481;-61
2023/10/30 03:40:25;;;;;;;8.13;2.20;;;11.20;99.90;;;;;;5033732;28;20445;-61
2023/10/30 03:42:52;;;;;;;4.20;1.70;;;11.20;99.90;;;;;;5033474;28;20461;-61
2023/10/30 03:45:19;;;;;;;6.83;1.60;;;11.20;99.90;;;;;;5033324;28;20983;-62
2023/10/30 03:47:46;;;;;;;4.03;1.07;;;11.30;99.90;;;;;;5033624;28;20441;-62
2023/10/30 03:50:14;;;;;;;4.87;1.70;;;11.20;99.90;;;;;;5033908;28;20445;-62
2023/10/30 03:52:43;;;;;;;3.23;1.73;;;11.30;99.90;;;;;;5033755;28;20512;-62
2023/10/30 03:55:10;;;;;;;8.10;1.50;;;11.20;99.90;;;;;;5033401;28;20939;-62
2023/10/30 03:57:37;;;;;;;2.53;1.13;;;11.30;99.90;;;;;;5033676;28;20452;-62
2023/10/30 04:00:07;;;;;;;14.60;2.13;;;11.20;99.90;;;;;;5033600;28;20449;-62
2023/10/30 04:02:33;;;;;;;3.97;1.20;;;11.20;99.90;;;;;;5032782;28;20505;-62
2023/10/30 04:05:00;;;;;;;4.67;1.47;;;11.10;99.90;;;;;;5033376;28;20445;-62
2023/10/30 04:07:27;;;;;;;2.70;1.40;;;11.10;99.90;;;;;;5033416;28;20445;-62
2023/10/30 04:12:28;;;;;;;5.63;1.70;;;11.10;99.90;;;;;;5091306;28;20619;-61
2023/10/30 04:14:55;;;;;;;4.13;1.23;;;11.00;99.90;;;;;;5091022;28;20567;-62
2023/10/30 04:17:22;;;;;;;7.40;1.63;;;11.00;99.90;;;;;;5091055;28;20878;-62
2023/10/30 04:19:48;;;;;;;2.50;1.60;;;10.90;99.90;;;;;;5091019;28;20439;-62
2023/10/30 04:22:15;;;;;;;4.80;1.70;;;10.90;99.90;;;;;;5090775;28;20463;-62
2023/10/30 04:24:42;;;;;;;7.20;1.50;;;10.90;99.90;;;;;;5091382;28;20439;-63
2023/10/30 04:27:09;;;;;;;4.57;1.70;;;11.00;99.90;;;;;;5091034;28;20461;-62
2023/10/30 04:29:37;;;;;;;3.97;1.43;;;11.00;99.90;;;;;;5090696;28;20812;-62
2023/10/30 04:32:04;;;;;;;3.57;1.10;;;11.00;99.90;;;;;;5090348;28;20483;-62
2023/10/30 04:34:31;;;;;;;2.83;1.30;;;11.00;99.90;;;;;;5090742;28;20442;-62
2023/10/30 04:36:58;;;;;;;3.43;1.40;;;11.00;99.90;;;;;;5090901;28;20442;-60
2023/10/30 04:39:25;;;;;;;4.07;1.90;;;11.00;99.90;;;;;;5090179;28;21003;-62
2023/10/30 04:41:53;;;;;;;2.63;1.53;;;11.00;99.90;;;;;;5090252;28;20462;-62
2023/10/30 04:44:20;;;;;;;7.70;2.00;;;11.00;99.90;;;;;;5090101;28;20438;-63
2023/10/30 04:46:48;;;;;;;8.17;1.57;;;11.00;99.90;;;;;;5090433;28;20472;-62
2023/10/30 04:49:15;;;;;;;5.87;1.40;;;11.00;99.90;;;;;;5090499;28;20450;-62
2023/10/30 04:51:42;;;;;;;3.30;1.90;;;11.00;99.90;;;;;;5091362;28;20810;-62
2023/10/30 04:54:08;;;;;;;6.37;1.33;;;11.00;99.90;;;;;;5090741;28;20438;-61
2023/10/30 04:56:35;;;;;;;10.27;1.90;;;11.00;99.90;;;;;;5090721;28;20485;-63
2023/10/30 04:59:02;;;;;;;4.17;1.40;;;11.00;99.90;;;;;;5090983;28;20445;-60
2023/10/30 05:01:29;;;;;;;6.30;2.00;;;11.00;99.90;;;;;;5106973;22;20491;-60
2023/10/30 05:03:58;;;;;;;4.53;1.33;;;11.00;99.90;;;;;;5070793;28;20436;-61
2023/10/30 05:06:25;;;;;;;1.47;1.20;;;11.00;99.90;;;;;;5072576;28;20443;-60
2023/10/30 05:08:51;;;;;;;4.93;1.57;;;11.10;99.90;;;;;;5074815;28;20466;-61
2023/10/30 05:11:18;;;;;;;2.07;1.27;;;11.10;99.90;;;;;;5077513;28;20483;-59
2023/10/30 05:13:45;;;;;;;1.93;1.37;;;11.20;99.90;;;;;;5078183;28;20443;-60
2023/10/30 05:16:11;;;;;;;2.97;1.60;;;11.20;99.90;;;;;;5077770;28;20515;-60
2023/10/30 05:18:38;;;;;;;6.10;1.47;;;11.30;99.90;;;;;;5075984;28;20448;-62
2023/10/30 05:21:06;;;;;;;3.60;1.33;;;11.30;99.90;;;;;;5073001;28;20455;-61
2023/10/30 05:23:33;;;;;;;4.03;1.40;;;11.30;99.90;;;;;;5057228;28;20972;-61
2023/10/30 05:26:00;;;;;;;10.23;1.27;;;11.30;99.90;;;;;;5056367;28;20436;-60
2023/10/30 05:28:27;;;;;;;5.33;1.53;;;11.30;99.90;;;;;;5056090;28;20455;-61
2023/10/30 05:30:53;;;;;;;4.27;1.50;;;11.30;99.90;;;;;;5055910;28;21028;-61
2023/10/30 05:33:20;;;;;;;5.60;1.37;;;11.30;99.90;;;;;;5056340;28;20444;-61
2023/10/30 05:35:52;;;;;;;3.67;1.40;;;11.30;99.90;;;;;;5056011;28;20440;-61
2023/10/30 05:38:20;;;;;;;2.70;1.30;;;11.40;99.90;;;;;;5056245;28;20554;-61
2023/10/30 05:40:47;;;;;;;3.90;1.63;;;11.40;99.90;;;;;;5055546;28;20925;-61
2023/10/30 05:43:14;;;;;;;4.33;1.50;;;11.40;99.90;;;;;;5055994;28;20451;-61
2023/10/30 05:45:41;;;;;;;5.73;1.77;;;11.40;99.90;;;;;;5056586;28;20439;-61
2023/10/30 05:48:07;;;;;;;3.23;1.43;;;11.40;99.90;;;;;;5055996;28;20445;-61
2023/10/30 05:50:34;;;;;;;4.13;1.30;;;11.50;99.90;;;;;;5055597;28;20961;-62
2023/10/30 05:53:01;;;;;;;6.90;1.50;;;11.50;99.90;;;;;;5055741;28;20472;-61
2023/10/30 05:55:29;;;;;;;9.07;1.53;;;11.50;99.90;;;;;;5056053;28;20441;-61
2023/10/30 05:57:56;;;;;;;3.33;1.40;;;11.50;99.90;;;;;;5055337;28;20449;-61
2023/10/30 06:00:24;;;;;;;3.60;1.50;;;11.40;99.90;;;;;;5055939;28;20451;-62
2023/10/30 06:02:51;;;;;;;3.70;1.73;;;11.40;99.90;;;;;;5055320;28;20973;-61
2023/10/30 06:05:18;;;;;;;2.70;1.90;;;11.40;99.90;;;;;;5057214;28;20444;-62
2023/10/30 06:07:45;;;;;;;5.47;1.13;;;11.40;99.90;;;;;;5056909;28;20460;-62
2023/10/30 06:10:12;;;;;;;4.17;1.40;;;11.40;99.90;;;;;;5056542;28;20952;-61
2023/10/30 06:12:40;;;;;;;4.07;1.50;;;11.40;99.90;;;;;;5055556;28;21041;-61
2023/10/30 06:15:09;;;;;;;4.93;1.70;;;11.40;99.90;;;;;;5055744;28;20451;-62
2023/10/30 06:17:36;;;;;;;4.20;1.23;;;11.40;99.90;;;;;;5056066;28;20494;-61
2023/10/30 06:20:03;;;;;;;6.60;1.83;;;11.40;99.90;;;;;;5056051;28;20448;-61
2023/10/30 06:22:30;;;;;;;4.77;1.60;;;11.40;99.90;;;;;;5055855;28;20495;-62
2023/10/30 06:24:58;;;;;;;5.20;1.43;;;11.40;99.90;;;;;;5055428;28;20447;-61
2023/10/30 06:27:25;;;;;;;4.67;1.50;;;11.40;99.90;;;;;;5055349;28;20452;-61
2023/10/30 06:29:54;;;;;;;7.77;1.40;;;11.50;99.90;;;;;;5056417;28;20455;-61
2023/10/30 06:32:20;;;;;;;5.13;1.67;;;11.50;99.90;;;;;;5059837;28;20488;-61
2023/10/30 06:34:47;;;;;;;6.40;1.77;;;11.50;99.90;;;;;;5057774;28;20508;-61
2023/10/30 06:37:15;;;;;;;10.80;2.37;;;11.50;99.90;;;;;;5054869;28;20451;-62
2023/10/30 06:39:42;;;;;;;2.97;1.30;;;11.50;99.90;;;;;;5056066;28;20512;-62
2023/10/30 06:42:09;;;;;;;3.70;1.30;;;11.50;99.90;;;;;;5054976;28;20464;-61
2023/10/30 06:44:36;;;;;;;8.53;1.60;;;11.50;99.90;;;;;;5054640;28;20440;-61
2023/10/30 06:47:04;;;;;;;5.73;1.77;;;11.60;99.90;;;;;;5054488;28;20437;-61
2023/10/30 06:49:31;;;;;;;9.43;1.67;;;11.50;99.90;;;;;;5054729;28;20597;-61
2023/10/30 06:51:57;;;;;;;4.03;1.23;;;11.60;99.90;;;;;;5054631;28;20483;-61
2023/10/30 06:54:24;;;;;;;5.33;1.70;;;11.60;99.90;;;;;;5054576;28;20948;-61
2023/10/30 06:56:51;;;;;;;4.10;2.70;;;11.60;99.90;;;;;;5054358;28;20440;-61
2023/10/30 06:59:18;;;;;;;6.47;1.80;;;11.50;99.90;;;;;;5054611;28;20865;-61
2023/10/30 07:01:46;;;;;;;9.03;1.60;;;11.60;99.90;;;;;;5054326;28;20472;-61
2023/10/30 07:04:15;;;;;;;8.30;2.30;;;11.60;99.90;;;;;;5054680;28;20448;-61
2023/10/30 07:06:44;;;;;;;2.77;1.73;;;11.60;99.90;;;;;;5055560;28;20444;-61
2023/10/30 07:09:12;;;;;;;3.07;1.50;;;11.60;99.90;;;;;;5056092;28;20915;-61
2023/10/30 07:11:40;;;;;;;5.20;1.57;;;11.70;99.90;;;;;;5057308;28;20539;-61
2023/10/30 07:14:08;;;;;;;7.50;1.70;;;11.70;99.90;;;;;;5055332;28;20436;-61
2023/10/30 07:16:35;;;;;;;4.83;1.47;;;11.70;99.90;;;;;;5055340;28;20455;-61
2023/10/30 07:19:03;;;;;;;4.70;1.70;;;11.70;99.90;;;;;;5054895;28;20526;-61
2023/10/30 07:21:31;;;;;;;4.60;1.60;;;11.70;99.90;;;;;;5054729;28;20460;-61
2023/10/30 07:23:58;;;;;;;7.53;1.50;;;11.80;99.90;;;;;;5054016;28;20446;-61
2023/10/30 07:26:25;;;;;;;7.30;1.40;;;11.80;99.90;;;;;;5054474;28;20448;-60
2023/10/30 07:28:53;;;;;;;4.93;1.57;;;11.80;99.90;;;;;;5054267;28;20995;-61
2023/10/30 07:31:20;;;;;;;3.70;1.50;;;11.80;99.90;;;;;;5054252;28;20582;-61
2023/10/30 07:33:49;;;;;;;1.80;1.10;;;11.80;99.90;;;;;;5054965;28;20798;-60
2023/10/30 07:36:16;;;;;;;3.70;1.67;;;11.90;99.90;;;;;;5055991;28;20441;-60
2023/10/30 07:38:44;;;;;;;7.47;3.40;;;11.80;99.90;;;;;;5056592;28;20443;-60
2023/10/30 07:41:11;;;;;;;7.87;2.00;;;11.90;99.90;;;;;;5060025;28;20476;-62
2023/10/30 07:43:37;;;;;;;3.33;2.83;;;11.90;99.90;;;;;;5059453;28;20444;-61
2023/10/30 07:46:04;;;;;;;5.07;2.00;;;11.90;99.90;;;;;;5059007;28;20451;-63
2023/10/30 07:48:31;;;;;;;5.90;2.20;;;12.00;99.90;;;;;;5057163;28;20445;-61
2023/10/30 07:51:02;;;;;;;5.60;1.60;;;12.00;99.90;;;;;;5057154;28;20450;-61
2023/10/30 07:53:29;;;;;;;6.90;1.90;;;12.10;99.90;;;;;;5053753;28;20484;-61
2023/10/30 07:55:57;;;;;;;6.17;1.77;;;12.10;99.90;;;;;;5053559;28;20440;-61
2023/10/30 07:58:25;;;;;;;6.93;3.50;;;12.20;99.90;;;;;;5053709;28;20455;-60
2023/10/30 08:00:52;;;;;;;4.13;1.50;;;12.20;99.90;;;;;;5053329;28;20447;-61
2023/10/30 08:03:18;;;;;;;5.10;1.73;;;12.20;99.90;;;;;;5053261;28;20420;-60
2023/10/30 08:05:45;;;;;;;3.97;1.77;;;12.30;99.90;;;;;;5053646;28;20436;-61
2023/10/30 08:08:13;;;;;;;4.00;1.80;;;12.30;99.90;;;;;;5054201;28;20814;-61
2023/10/30 08:10:40;;;;;;;7.00;1.93;;;12.30;99.90;;;;;;5053135;28;20452;-62
2023/10/30 08:13:08;;;;;;;3.43;1.73;;;12.30;99.90;;;;;;5053695;28;20502;-61
2023/10/30 08:15:35;;;;;;;6.43;2.00;;;12.30;99.90;;;;;;5053686;28;20451;-60
2023/10/30 08:18:05;;;;;;;3.30;2.10;;;12.30;99.90;;;;;;5053445;28;20794;-62
2023/10/30 08:20:31;;;;;;;6.73;1.53;;;12.30;99.90;;;;;;5053346;28;20459;-62
2023/10/30 08:22:58;;;;;;;5.17;1.80;;;12.30;99.90;;;;;;5053556;28;20461;-61
2023/10/30 08:25:25;;;;;;;5.03;1.80;;;12.30;99.90;;;;;;5053441;28;20444;-62
2023/10/30 08:27:52;;;;;;;4.07;1.70;;;12.20;99.90;;;;;;5054422;28;20444;-61
2023/10/30 08:30:20;;;;;;;3.57;1.57;;;12.10;99.90;;;;;;5053986;28;20439;-61
2023/10/30 08:32:48;;;;;;;6.77;1.70;;;12.10;99.90;;;;;;5053449;28;20483;-61
2023/10/30 08:35:14;;;;;;;4.83;1.80;;;12.00;99.90;;;;;;5053663;28;20471;-58
2023/10/30 08:37:41;;;;;;;5.60;1.90;;;12.00;99.90;;;;;;5053640;28;20444;-61
2023/10/30 08:40:09;;;;;;;3.80;1.53;;;12.00;99.90;;;;;;5053403;28;20447;-61
2023/10/30 08:42:36;;;;;;;2.60;1.70;;;12.00;99.90;;;;;;5052936;28;20467;-61
2023/10/30 08:45:03;;;;;;;7.23;2.00;;;12.00;99.90;;;;;;5053122;28;20458;-60
2023/10/30 08:47:31;;;;;;;4.57;1.97;;;12.00;99.90;;;;;;5053173;28;20938;-61
2023/10/30 08:49:58;;;;;;;4.70;1.60;;;12.00;99.90;;;;;;5053182;28;20467;-61
2023/10/30 08:52:25;;;;;;;4.43;1.83;;;12.10;99.90;;;;;;5053560;28;20486;-61
2023/10/30 08:54:51;;;;;;;11.70;2.13;;;12.30;99.90;;;;;;5053548;28;20807;-61
2023/10/30 08:57:19;;;;;;;7.63;2.10;;;12.40;99.90;;;;;;5054954;28;20443;-61
2023/10/30 08:59:46;;;;;;;4.53;1.83;;;12.50;99.90;;;;;;5058021;28;20588;-61
2023/10/30 09:02:12;;;;;;;7.60;2.00;;;12.60;99.90;;;;;;5058337;28;20536;-62
2023/10/30 09:04:40;;;;;;;8.33;2.60;;;12.80;99.90;;;;;;5058618;28;20448;-61
2023/10/30 09:07:07;;;;;;;8.97;2.03;;;13.00;99.90;;;;;;5058725;28;20444;-60
2023/10/30 09:09:34;;;;;;;4.60;1.93;;;13.10;99.90;;;;;;5057996;28;20475;-61
2023/10/30 09:12:01;;;;;;;4.63;2.00;;;13.30;99.90;;;;;;5056532;28;20480;-61
2023/10/30 09:14:28;;;;;;;4.13;1.87;;;13.40;99.90;;;;;;5056679;28;20950;-62
2023/10/30 09:16:55;;;;;;;4.87;2.20;;;13.50;99.90;;;;;;5057047;28;20535;-61
2023/10/30 09:19:22;;;;;;;3.67;2.00;;;13.60;99.90;;;;;;5057021;28;20448;-62
2023/10/30 09:21:50;;;;;;;4.63;2.10;;;13.70;99.90;;;;;;5056078;28;20472;-62
2023/10/30 09:24:17;;;;;;;5.33;1.40;;;13.70;99.90;;;;;;5055822;28;20444;-62
2023/10/30 09:26:44;;;;;;;3.67;1.60;;;13.80;99.90;;;;;;5056399;28;20436;-62
2023/10/30 09:29:11;;;;;;;4.53;1.50;;;13.90;99.90;;;;;;5056457;28;20490;-63
2023/10/30 09:31:38;;;;;;;5.93;2.20;;;14.00;99.90;;;;;;5055941;28;20829;-61
2023/10/30 09:34:05;;;;;;;4.73;1.80;;;14.10;99.90;;;;;;5056521;28;20451;-62
2023/10/30 09:36:32;;;;;;;4.57;1.10;;;14.20;99.90;;;;;;5056630;28;20440;-62
2023/10/30 09:39:00;;;;;;;7.50;1.87;;;14.30;99.90;;;;;;5056413;28;20443;-61
2023/10/30 09:41:29;;;;;;;4.47;1.50;;;14.40;99.90;;;;;;5056387;28;20504;-61
2023/10/30 09:43:58;;;;;;;4.67;1.70;;;14.60;99.90;;;;;;5056327;28;20440;-61
2023/10/30 09:46:28;;;;;;;3.07;1.57;;;14.60;99.90;;;;;;5056331;28;20437;-60
2023/10/30 09:48:56;;;;;;;8.63;1.67;;;14.60;99.90;;;;;;5055837;28;20432;-60
2023/10/30 09:51:24;;;;;;;2.03;1.43;;;14.60;99.90;;;;;;5055573;28;20464;-62
2023/10/30 09:53:54;;;;;;;5.10;1.83;;;14.60;99.90;;;;;;5055811;28;20842;-61
2023/10/30 09:56:25;;;;;;;3.93;1.60;;;14.60;99.90;;;;;;5058641;28;20448;-61
2023/10/30 09:58:53;;;;;;;2.90;1.40;;;14.60;99.90;;;;;;5057776;28;20436;-61
2023/10/30 10:01:20;;;;;;;4.77;1.90;;;14.70;99.90;;;;;;5058236;28;20479;-60
2023/10/30 10:03:47;;;;;;;6.30;1.83;;;14.70;99.90;;;;;;5059759;28;20431;-62
2023/10/30 10:06:14;;;;;;;3.20;1.37;;;14.70;99.90;;;;;;5059057;28;20466;-61
2023/10/30 10:08:43;;;;;;;4.50;1.57;;;14.80;99.90;;;;;;5061651;28;20448;-61
2023/10/30 10:11:10;;;;;;;3.10;1.37;;;14.80;99.90;;;;;;5062953;28;20468;-62
2023/10/30 10:13:40;;;;;;;4.43;1.60;;;14.90;99.90;;;;;;5060686;28;20591;-61
2023/10/30 10:16:07;;;;;;;4.90;1.67;;;14.90;99.90;;;;;;5059245;28;20443;-61
2023/10/30 10:18:35;;;;;;;4.60;2.07;;;14.90;99.90;;;;;;5056611;28;20448;-61
2023/10/30 10:21:04;;;;;;;3.80;1.13;;;14.90;99.90;;;;;;5056668;28;20464;-61
2023/10/30 10:23:33;;;;;;;2.13;1.20;;;14.90;99.90;;;;;;5056281;28;20440;-61
2023/10/30 10:26:03;;;;;;;3.73;1.80;;;14.90;99.90;;;;;;5056206;28;20440;-61
2023/10/30 10:28:30;;;;;;;4.37;1.43;;;15.00;99.90;;;;;;5055554;28;20448;-61
2023/10/30 10:30:58;;;;;;;2.77;1.30;;;15.20;99.90;;;;;;5054719;28;20518;-62
2023/10/30 10:33:27;;;;;;;3.73;1.47;;;15.30;99.90;;;;;;5055094;28;20574;-61
2023/10/30 10:35:55;;;;;;;2.90;1.40;;;15.40;99.90;;;;;;5055220;28;20498;-62
2023/10/30 10:38:22;;;;;;;5.70;1.10;;;15.60;99.90;;;;;;5055240;28;20440;-62
2023/10/30 10:40:50;;;;;;;7.90;1.63;;;15.70;99.90;;;;;;5054913;28;20476;-61
2023/10/30 10:43:19;;;;;;;1.47;1.03;;;15.80;99.90;;;;;;5054524;28;20799;-61
2023/10/30 10:45:46;;;;;;;3.97;1.30;;;15.80;99.90;;;;;;5054465;28;20958;-61
2023/10/30 10:48:15;;;;;;;5.47;1.70;;;15.90;99.90;;;;;;5054806;28;20448;-61
2023/10/30 10:50:42;;;;;;;3.77;1.57;;;15.90;99.90;;;;;;5054818;28;20544;-62
2023/10/30 10:53:10;;;;;;;4.77;1.80;;;16.00;99.90;;;;;;5055125;28;20486;-61
2023/10/30 10:55:42;;;;;;;3.10;1.23;;;16.00;99.90;;;;;;5055287;28;20952;-61
2023/10/30 10:58:16;;;;;;;4.00;1.60;;;16.00;99.90;;;;;;5054666;28;20427;-62
2023/10/30 11:00:47;;;;;;;3.53;1.60;;;16.00;99.90;;;;;;5055378;28;20448;-63
2023/10/30 11:03:16;;;;;;;6.43;2.37;;;16.00;99.90;;;;;;5055186;28;20417;-62
2023/10/30 11:05:44;;;;;;;3.07;1.03;;;16.00;99.90;;;;;;5055709;28;20440;-62
2023/10/30 11:08:42;;;;;;;2.97;1.23;;;16.00;99.90;;;;;;5054955;28;20553;-61
2023/10/30 11:11:15;;;;;;;3.30;1.30;;;16.10;99.90;;;;;;5039702;28;20468;-61
2023/10/30 11:13:59;;;;;;;4.20;1.80;;;16.20;99.90;;;;;;5054917;28;20836;-61
2023/10/30 11:16:29;;;;;;;4.60;1.60;;;16.30;99.90;;;;;;5055115;28;20425;-63
2023/10/30 11:19:00;;;;;;;2.87;1.53;;;16.30;99.90;;;;;;5055014;28;20785;-62
2023/10/30 11:21:28;;;;;;;2.83;0.90;;;16.20;99.90;;;;;;5054345;28;20543;-62
2023/10/30 11:23:56;;;;;;;3.60;2.27;;;16.20;99.90;;;;;;5054319;28;20810;-62
2023/10/30 11:26:40;;;;;;;5.20;1.40;;;16.10;99.90;;;;;;5054485;28;20535;-62
2023/10/30 11:29:09;;;;;;;3.43;1.40;;;16.10;99.90;;;;;;5054385;28;20424;-63
2023/10/30 11:32:02;;;;;;;2.33;1.30;;;16.00;99.90;;;;;;5053860;28;20889;-62
2023/10/30 11:34:33;;;;;;;4.00;1.57;;;15.90;99.90;;;;;;5054478;28;20464;-62
2023/10/30 11:37:04;;;;;;;5.03;1.40;;;15.90;99.90;;;;;;5055452;28;20456;-63
2023/10/30 11:39:35;;;;;;;3.37;1.63;;;16.00;99.90;;;;;;5055997;28;20431;-62
2023/10/30 11:42:04;;;;;;;3.77;1.27;;;16.00;99.80;;;;;;5055134;28;20774;-65
2023/10/30 11:44:32;;;;;;;4.60;1.60;;;16.10;99.80;;;;;;5054211;28;20448;-63
2023/10/30 11:46:59;;;;;;;4.13;1.13;;;16.10;99.50;;;;;;5054235;28;20952;-62
2023/10/30 11:49:32;;;;;;;4.40;1.40;;;16.20;99.40;;;;;;5054631;28;20507;-62
2023/10/30 11:51:59;;;;;;;3.80;1.30;;;16.40;99.40;;;;;;5054832;28;20961;-62
2023/10/30 11:54:32;;;;;;;4.80;1.20;;;16.40;99.10;;;;;;5054310;28;20479;-62
2023/10/30 11:57:00;;;;;;;2.80;1.53;;;16.50;98.70;;;;;;5053382;28;20952;-62
2023/10/30 11:59:27;;;;;;;5.00;2.27;;;16.60;98.30;;;;;;5053586;28;20831;-62
2023/10/30 12:01:56;;;;;;;3.40;1.23;;;16.60;98.10;;;;;;5053175;28;20471;-62
2023/10/30 12:04:23;;;;;;;3.60;1.60;;;16.70;98.00;;;;;;5053278;28;20973;-62
2023/10/30 12:06:51;;;;;;;3.43;1.63;;;16.70;97.60;;;;;;5053909;28;20444;-63
2023/10/30 12:09:18;;;;;;;2.60;1.60;;;16.80;97.30;;;;;;5053667;28;20444;-62
2023/10/30 12:11:45;;;;;;;1.60;1.10;;;16.90;96.90;;;;;;5054501;28;20464;-61
2023/10/30 12:14:13;;;;;;;2.80;1.37;;;17.00;96.70;;;;;;5053579;28;21120;-62
2023/10/30 12:16:45;;;;;;;2.67;0.93;;;17.10;96.40;;;;;;5054047;28;20444;-66
2023/10/30 12:19:12;;;;;;;1.57;0.93;;;17.10;95.90;;;;;;5053987;28;20428;-61
2023/10/30 12:21:39;;;;;;;5.63;1.50;;;17.10;95.50;;;;;;5053415;28;20544;-62
2023/10/30 12:24:09;;;;;;;1.77;1.33;;;17.10;95.30;;;;;;5053889;28;20433;-63
2023/10/30 12:26:40;;;;;;;1.60;0.97;;;17.10;95.30;;;;;;5055075;28;20444;-62
2023/10/30 12:29:07;;;;;;;3.00;1.10;;;17.10;95.20;;;;;;5055688;28;20793;-61
2023/10/30 12:31:34;;;;;;;2.30;1.27;;;17.10;95.00;;;;;;5060111;28;20464;-63
2023/10/30 12:34:11;;;;;;;2.23;0.97;;;17.10;95.00;;;;;;5064122;28;20479;-63
2023/10/30 12:36:39;;;;;;;1.40;0.70;;;17.10;94.50;;;;;;5061868;28;20467;-63
2023/10/30 12:39:17;;;;;;;1.00;0.60;;;17.00;94.10;;;;;;5059702;28;20444;-63
2023/10/30 12:41:47;;;;;;;4.60;1.33;;;17.00;93.80;;;;;;5059637;28;20466;-61
2023/10/30 12:44:16;;;;;;;3.60;0.90;;;17.00;93.60;;;;;;5057428;28;20455;-62
2023/10/30 12:46:43;;;;;;;4.13;1.23;;;17.20;93.70;;;;;;5057301;28;20926;-62
2023/10/30 12:49:10;;;;;;;3.23;1.03;;;17.30;93.70;;;;;;5057565;28;20437;-62
2023/10/30 12:51:37;;;;;;;2.20;1.03;;;17.50;93.50;;;;;;5059068;28;20531;-62